Time;durP1;ratioP1;P1;durP2;ratioP2;P2;SDS_P1;SDS_P2;PMS_P1;PMS_P2;Temp;Humidity;BMP_temperature;BMP_pressure;BME280_temperature;BME280_humidity;BME280_pressure;Samples;Min_cycle;Max_cycle;Signal;HPM_P1;HPM_P2
2022/06/23 00:00:48;;;;;;;9.33;5.90;;;;;;;;;;5076128;28;20521;-74
2022/06/23 00:03:19;;;;;;;7.93;5.37;;;;;;;;;;5077662;28;20554;-74
2022/06/23 00:05:50;;;;;;;13.40;5.90;;;;;;;;;;5076411;28;20547;-74
2022/06/23 00:08:18;;;;;;;8.10;5.57;;;;;;;;;;5077451;28;20444;-74
2022/06/23 00:10:47;;;;;;;5.70;5.20;;;;;;;;;;5077453;28;20857;-74
2022/06/23 00:13:15;;;;;;;6.23;4.77;;;;;;;;;;5075837;28;20452;-74
2022/06/23 00:15:47;;;;;;;8.17;4.63;;;;;;;;;;5076937;28;21173;-74
2022/06/23 00:18:19;;;;;;;6.20;5.40;;;;;;;;;;5076130;28;20750;-74
2022/06/23 00:20:49;;;;;;;8.07;5.70;;;;;;;;;;5076298;28;20479;-75
2022/06/23 00:23:20;;;;;;;6.70;5.80;;;;;;;;;;5076551;28;20895;-73
2022/06/23 00:25:52;;;;;;;6.30;5.20;;;;;;;;;;5075667;28;20873;-74
2022/06/23 00:28:22;;;;;;;6.83;5.37;;;;;;;;;;5076243;28;20437;-74
2022/06/23 00:30:53;;;;;;;7.80;5.73;;;;;;;;;;5077551;28;20464;-74
2022/06/23 00:33:23;;;;;;;6.80;5.50;;;;;;;;;;5076187;28;20535;-74
2022/06/23 00:35:51;;;;;;;5.20;4.60;;;;;;;;;;5076302;28;20480;-74
2022/06/23 00:38:27;;;;;;;7.37;4.70;;;;;;;;;;5076656;28;20492;-74
2022/06/23 00:40:55;;;;;;;6.80;5.27;;;;;;;;;;5076115;28;20462;-75
2022/06/23 00:43:23;;;;;;;7.57;5.70;;;;;;;;;;5077150;28;20448;-73
2022/06/23 00:45:55;;;;;;;7.33;6.00;;;;;;;;;;5075545;28;20508;-74
2022/06/23 00:48:24;;;;;;;7.07;5.10;;;;;;;;;;5076302;28;20456;-74
2022/06/23 00:50:55;;;;;;;8.80;5.70;;;;;;;;;;5076015;28;21046;-74
2022/06/23 00:53:26;;;;;;;7.77;5.40;;;;;;;;;;5076280;28;20986;-74
2022/06/23 00:55:57;;;;;;;7.70;5.53;;;;;;;;;;5076363;28;20547;-74
2022/06/23 00:58:33;;;;;;;9.93;5.90;;;;;;;;;;5075346;28;20482;-74
2022/06/23 01:01:05;;;;;;;11.97;6.63;;;;;;;;;;5076394;28;20855;-74
2022/06/23 01:03:36;;;;;;;9.20;5.43;;;;;;;;;;5075838;28;20521;-74
2022/06/23 01:06:08;;;;;;;7.97;5.37;;;;;;;;;;5076432;28;20556;-74
2022/06/23 01:08:39;;;;;;;7.77;5.83;;;;;;;;;;5076528;28;20441;-74
2022/06/23 01:11:15;;;;;;;7.23;5.83;;;;;;;;;;5076223;28;20912;-74
2022/06/23 01:13:47;;;;;;;8.13;5.87;;;;;;;;;;5076189;28;20456;-74
2022/06/23 01:16:18;;;;;;;6.23;4.97;;;;;;;;;;5075483;28;20793;-75
2022/06/23 01:18:51;;;;;;;8.57;5.83;;;;;;;;;;5075222;28;20491;-74
2022/06/23 01:21:21;;;;;;;6.70;5.13;;;;;;;;;;5074886;28;20736;-74
2022/06/23 01:23:57;;;;;;;6.40;5.27;;;;;;;;;;5074831;28;20448;-74
2022/06/23 01:26:52;;;;;;;7.80;6.20;;;;;;;;;;5075457;28;20459;-74
2022/06/23 01:29:22;;;;;;;6.80;6.10;;;;;;;;;;5028358;28;20604;-74
2022/06/23 01:31:53;;;;;;;7.50;6.07;;;;;;;;;;5075323;28;20452;-74
2022/06/23 01:34:25;;;;;;;7.60;5.50;;;;;;;;;;5074765;28;20861;-72
2022/06/23 01:36:58;;;;;;;8.10;5.27;;;;;;;;;;5074814;28;20475;-75
2022/06/23 01:39:28;;;;;;;7.03;5.70;;;;;;;;;;5075944;28;20488;-74
2022/06/23 01:41:58;;;;;;;7.37;5.27;;;;;;;;;;5074807;28;20452;-74
2022/06/23 01:44:37;;;;;;;10.20;5.50;;;;;;;;;;5074913;28;20468;-74
2022/06/23 01:47:13;;;;;;;7.23;5.60;;;;;;;;;;5074718;28;20864;-74
2022/06/23 01:49:46;;;;;;;9.33;6.67;;;;;;;;;;5074390;28;20452;-75
2022/06/23 01:52:17;;;;;;;7.23;5.60;;;;;;;;;;5074833;28;20867;-75
2022/06/23 01:54:48;;;;;;;6.60;5.70;;;;;;;;;;5075449;28;20486;-74
2022/06/23 01:57:22;;;;;;;7.50;6.67;;;;;;;;;;5074291;28;21006;-74
2022/06/23 01:59:57;;;;;;;8.43;5.40;;;;;;;;;;5074978;28;20485;-74
2022/06/23 02:02:42;;;;;;;8.50;5.43;;;;;;;;;;5074923;28;20444;-75
2022/06/23 02:05:15;;;;;;;6.97;5.47;;;;;;;;;;5059375;28;20456;-74
2022/06/23 02:07:51;;;;;;;8.50;6.13;;;;;;;;;;5074305;28;20444;-74
2022/06/23 02:10:24;;;;;;;10.93;7.20;;;;;;;;;;5074515;28;20650;-75
2022/06/23 02:12:55;;;;;;;8.13;6.10;;;;;;;;;;5060215;28;20476;-73
2022/06/23 02:15:27;;;;;;;14.33;6.83;;;;;;;;;;5054296;28;20453;-74
2022/06/23 02:17:58;;;;;;;9.93;6.90;;;;;;;;;;5053825;28;20511;-74
2022/06/23 02:20:32;;;;;;;7.93;6.30;;;;;;;;;;5054338;28;20544;-74
2022/06/23 02:23:03;;;;;;;7.73;6.60;;;;;;;;;;5063963;28;20740;-75
2022/06/23 02:25:34;;;;;;;14.20;6.40;;;;;;;;;;5073597;28;20877;-74
2022/06/23 02:28:05;;;;;;;7.30;5.90;;;;;;;;;;5074405;28;20914;-74
2022/06/23 02:30:36;;;;;;;8.10;6.23;;;;;;;;;;5074634;28;20512;-75
2022/06/23 02:33:06;;;;;;;9.87;6.50;;;;;;;;;;5053905;28;20738;-74
2022/06/23 02:35:36;;;;;;;8.33;6.13;;;;;;;;;;5055149;28;20442;-74
2022/06/23 02:38:07;;;;;;;8.57;5.93;;;;;;;;;;5054194;28;20937;-74
2022/06/23 02:40:37;;;;;;;12.17;6.73;;;;;;;;;;5054305;28;20544;-74
2022/06/23 02:43:11;;;;;;;8.43;6.60;;;;;;;;;;5075165;28;20460;-74
2022/06/23 02:46:03;;;;;;;6.90;6.20;;;;;;;;;;5075500;28;20486;-74
2022/06/23 02:48:41;;;;;;;10.83;7.37;;;;;;;;;;5078923;28;20454;-72
2022/06/23 02:51:17;;;;;;;9.00;6.73;;;;;;;;;;5078627;28;20452;-74
2022/06/23 02:54:03;;;;;;;8.03;6.43;;;;;;;;;;5077967;28;20451;-73
2022/06/23 02:56:48;;;;;;;10.90;7.03;;;;;;;;;;5069466;28;20459;-74
2022/06/23 02:59:18;;;;;;;7.87;6.20;;;;;;;;;;5057602;28;20913;-74
2022/06/23 03:01:47;;;;;;;7.33;6.53;;;;;;;;;;5057275;28;20464;-74
2022/06/23 03:04:23;;;;;;;8.23;6.50;;;;;;;;;;5058190;28;20983;-74
2022/06/23 03:06:56;;;;;;;8.00;6.17;;;;;;;;;;5058422;28;20555;-74
2022/06/23 03:09:28;;;;;;;8.70;6.40;;;;;;;;;;5056552;28;21206;-74
2022/06/23 03:12:00;;;;;;;7.80;6.87;;;;;;;;;;5063514;28;20756;-74
2022/06/23 03:14:37;;;;;;;14.40;8.00;;;;;;;;;;5064887;28;20445;-74
2022/06/23 03:17:10;;;;;;;9.40;7.30;;;;;;;;;;5057219;28;20464;-74
2022/06/23 03:19:40;;;;;;;7.70;6.27;;;;;;;;;;5057759;28;20481;-74
2022/06/23 03:22:11;;;;;;;9.67;6.97;;;;;;;;;;5057515;28;20461;-74
2022/06/23 03:24:42;;;;;;;10.70;6.50;;;;;;;;;;5057274;28;20744;-75
2022/06/23 03:27:18;;;;;;;13.13;7.13;;;;;;;;;;5057090;28;20941;-74
2022/06/23 03:29:49;;;;;;;9.27;7.00;;;;;;;;;;5057914;28;20737;-74
2022/06/23 03:32:20;;;;;;;8.37;6.90;;;;;;;;;;5057600;28;20469;-74
2022/06/23 03:34:51;;;;;;;8.80;7.60;;;;;;;;;;5057136;28;20533;-74
2022/06/23 03:37:21;;;;;;;11.60;7.70;;;;;;;;;;5057860;28;20561;-74
2022/06/23 03:42:40;;;;;;;10.77;7.20;;;;;;;;;;5057053;28;20868;-73
2022/06/23 03:45:13;;;;;;;8.57;7.30;;;;;;;;;;5056606;28;20468;-74
2022/06/23 03:47:47;;;;;;;9.40;6.60;;;;;;;;;;5068947;28;20453;-73
2022/06/23 03:50:33;;;;;;;11.00;7.17;;;;;;;;;;5060725;28;20560;-74
2022/06/23 03:53:02;;;;;;;9.13;7.70;;;;;;;;;;5055662;28;20449;-75
2022/06/23 03:55:31;;;;;;;8.90;6.90;;;;;;;;;;5066679;28;20459;-72
2022/06/23 03:58:05;;;;;;;11.17;7.87;;;;;;;;;;5074965;28;20539;-74
2022/06/23 04:00:36;;;;;;;11.23;7.00;;;;;;;;;;5076089;28;20842;-74
2022/06/23 04:03:12;;;;;;;10.00;7.30;;;;;;;;;;5074809;28;20522;-74
2022/06/23 04:06:00;;;;;;;12.70;8.30;;;;;;;;;;5068923;28;20554;-72
2022/06/23 04:08:30;;;;;;;11.13;7.37;;;;;;;;;;5026865;28;20528;-73
2022/06/23 04:11:43;;;;;;;9.40;7.60;;;;;;;;;;5061256;28;20468;-74
2022/06/23 04:13:47;;;;;;;11.90;9.10;;;;;;;;;;5076036;28;20440;-74
2022/06/23 04:16:15;;;;;;;10.33;8.40;;;;;;;;;;5063695;28;20559;-74
2022/06/23 04:18:45;;;;;;;9.70;8.00;;;;;;;;;;5055527;28;20500;-74
2022/06/23 04:21:18;;;;;;;8.00;7.07;;;;;;;;;;5055517;28;20555;-74
2022/06/23 04:23:50;;;;;;;8.53;6.90;;;;;;;;;;5056306;28;20457;-74
2022/06/23 04:26:19;;;;;;;8.00;7.20;;;;;;;;;;5075980;28;20475;-74
2022/06/23 04:28:49;;;;;;;9.57;7.10;;;;;;;;;;5076194;28;20495;-75
2022/06/23 04:31:18;;;;;;;8.80;7.30;;;;;;;;;;5076355;28;20448;-74
2022/06/23 04:33:48;;;;;;;11.80;6.90;;;;;;;;;;5076045;28;20445;-74
2022/06/23 04:36:20;;;;;;;9.30;6.60;;;;;;;;;;5056114;28;20458;-74
2022/06/23 04:38:51;;;;;;;9.33;6.63;;;;;;;;;;5055527;28;20491;-75
2022/06/23 04:41:21;;;;;;;11.47;7.87;;;;;;;;;;5056923;28;20882;-74
2022/06/23 04:43:51;;;;;;;11.43;7.50;;;;;;;;;;5056316;28;20472;-74
2022/06/23 04:46:20;;;;;;;9.10;7.53;;;;;;;;;;5054626;28;20453;-74
2022/06/23 04:48:52;;;;;;;9.47;6.57;;;;;;;;;;5055334;28;20924;-75
2022/06/23 04:51:26;;;;;;;8.37;6.77;;;;;;;;;;5070328;28;20816;-74
2022/06/23 04:53:58;;;;;;;7.97;6.40;;;;;;;;;;5064057;28;20469;-74
2022/06/23 04:56:37;;;;;;;7.77;6.97;;;;;;;;;;5053700;28;20442;-74
2022/06/23 04:59:14;;;;;;;8.47;5.60;;;;;;;;;;5054664;28;20493;-74
2022/06/23 05:01:43;;;;;;;7.30;5.10;;;;;;;;;;5054725;28;20825;-75
2022/06/23 05:04:17;;;;;;;8.07;6.07;;;;;;;;;;5054325;28;20555;-74
2022/06/23 05:06:46;;;;;;;7.13;5.73;;;;;;;;;;5053649;28;20939;-73
2022/06/23 05:09:20;;;;;;;7.50;6.03;;;;;;;;;;5053208;28;20864;-72
2022/06/23 05:11:53;;;;;;;7.43;4.63;;;;;;;;;;5072579;28;20455;-73
2022/06/23 05:14:26;;;;;;;6.47;4.60;;;;;;;;;;5071559;28;20476;-73
2022/06/23 05:16:56;;;;;;;6.90;4.67;;;;;;;;;;5063994;28;20469;-73
2022/06/23 05:19:28;;;;;;;6.30;4.50;;;;;;;;;;5052637;28;20489;-73
2022/06/23 05:21:58;;;;;;;10.43;5.33;;;;;;;;;;5051179;28;20500;-73
2022/06/23 05:24:28;;;;;;;7.30;4.47;;;;;;;;;;5052279;28;20467;-73
2022/06/23 05:27:01;;;;;;;6.43;3.90;;;;;;;;;;5052850;28;20452;-73
2022/06/23 05:29:31;;;;;;;7.70;4.30;;;;;;;;;;5051897;28;20493;-71
2022/06/23 05:32:03;;;;;;;8.50;3.93;;;;;;;;;;5051151;28;20454;-73
2022/06/23 05:34:32;;;;;;;6.20;4.20;;;;;;;;;;5050847;28;20447;-73
2022/06/23 05:37:03;;;;;;;7.23;4.33;;;;;;;;;;5069139;28;20448;-73
2022/06/23 05:39:37;;;;;;;6.40;4.50;;;;;;;;;;5068583;28;20484;-73
2022/06/23 05:42:11;;;;;;;5.20;4.37;;;;;;;;;;5061756;28;20450;-73
2022/06/23 05:44:44;;;;;;;8.43;4.40;;;;;;;;;;5050219;28;20457;-72
2022/06/23 05:47:13;;;;;;;7.60;4.93;;;;;;;;;;5050990;28;20438;-72
2022/06/23 05:49:43;;;;;;;12.67;4.30;;;;;;;;;;5053046;28;20457;-73
2022/06/23 05:52:14;;;;;;;7.03;4.30;;;;;;;;;;5053828;28;20528;-72
2022/06/23 05:54:45;;;;;;;7.60;5.07;;;;;;;;;;5051463;28;20452;-73
2022/06/23 05:57:16;;;;;;;8.00;4.30;;;;;;;;;;5050804;28;20804;-73
2022/06/23 05:59:55;;;;;;;6.73;3.90;;;;;;;;;;5051296;28;20491;-74
2022/06/23 06:02:27;;;;;;;17.90;5.47;;;;;;;;;;5050418;28;20487;-72
2022/06/23 06:04:57;;;;;;;14.70;4.87;;;;;;;;;;5050431;28;20550;-73
2022/06/23 06:07:26;;;;;;;5.80;4.43;;;;;;;;;;5058522;28;20465;-73
2022/06/23 06:09:56;;;;;;;8.57;4.50;;;;;;;;;;5070704;28;20464;-73
2022/06/23 06:12:31;;;;;;;7.43;4.63;;;;;;;;;;5071000;28;20731;-73
2022/06/23 06:15:01;;;;;;;7.80;4.83;;;;;;;;;;5071931;28;20495;-72
2022/06/23 06:17:30;;;;;;;9.47;5.30;;;;;;;;;;5071904;28;20482;-73
2022/06/23 06:20:08;;;;;;;6.10;3.57;;;;;;;;;;5070601;28;20491;-73
2022/06/23 06:26:09;;;;;;;7.17;4.27;;;;;;;;;;5050808;28;20469;-74
2022/06/23 06:28:40;;;;;;;5.93;3.70;;;;;;;;;;5060226;28;20543;-74
2022/06/23 06:31:38;;;;;;;8.50;4.93;;;;;;;;;;5071277;28;20509;-74
2022/06/23 06:34:09;;;;;;;6.20;3.90;;;;;;;;;;5071389;28;20448;-73
2022/06/23 06:36:45;;;;;;;7.90;5.90;;;;;;;;;;5054947;28;20465;-73
2022/06/23 06:39:15;;;;;;;9.40;4.73;;;;;;;;;;5051876;28;20466;-71
2022/06/23 06:41:46;;;;;;;8.10;3.73;;;;;;;;;;5056144;28;20829;-73
2022/06/23 06:44:17;;;;;;;6.80;4.43;;;;;;;;;;5050630;28;20842;-74
2022/06/23 06:46:54;;;;;;;8.23;4.63;;;;;;;;;;5066029;28;20456;-72
2022/06/23 06:49:32;;;;;;;5.40;4.20;;;;;;;;;;5071697;28;20446;-73
2022/06/23 06:52:02;;;;;;;7.43;4.50;;;;;;;;;;5067144;28;20457;-74
2022/06/23 06:54:40;;;;;;;6.87;4.03;;;;;;;;;;5056674;28;20531;-73
2022/06/23 06:57:25;;;;;;;10.40;4.80;;;;;;;;;;5070313;28;20994;-73
2022/06/23 06:59:56;;;;;;;6.77;4.93;;;;;;;;;;5051544;28;20857;-73
2022/06/23 07:02:27;;;;;;;5.70;4.10;;;;;;;;;;5050925;28;20499;-73
2022/06/23 07:04:57;;;;;;;8.03;4.80;;;;;;;;;;5071548;28;20486;-74
2022/06/23 07:07:28;;;;;;;6.93;4.43;;;;;;;;;;5067335;28;20845;-73
2022/06/23 07:09:59;;;;;;;6.60;3.63;;;;;;;;;;5052844;28;20949;-74
2022/06/23 07:12:29;;;;;;;7.10;5.00;;;;;;;;;;5051177;28;20461;-73
2022/06/23 07:15:05;;;;;;;6.40;4.80;;;;;;;;;;5052179;28;21017;-74
2022/06/23 07:17:37;;;;;;;9.63;4.27;;;;;;;;;;5050428;28;20453;-74
2022/06/23 07:20:09;;;;;;;7.10;4.03;;;;;;;;;;5058010;28;20998;-74
2022/06/23 07:22:39;;;;;;;5.97;4.00;;;;;;;;;;5052332;28;20446;-74
2022/06/23 07:25:13;;;;;;;5.17;3.73;;;;;;;;;;5061410;28;20854;-76
2022/06/23 07:27:44;;;;;;;7.10;3.97;;;;;;;;;;5051715;28;20492;-74
2022/06/23 07:30:15;;;;;;;6.87;5.10;;;;;;;;;;5059957;28;20859;-74
2022/06/23 07:32:46;;;;;;;5.33;4.47;;;;;;;;;;5056611;28;20449;-73
2022/06/23 07:35:29;;;;;;;4.80;3.83;;;;;;;;;;5069811;28;20468;-74
2022/06/23 07:38:06;;;;;;;7.20;4.80;;;;;;;;;;5073046;28;20504;-73
2022/06/23 07:40:40;;;;;;;5.80;4.67;;;;;;;;;;5071701;28;20479;-74
2022/06/23 07:43:17;;;;;;;5.73;4.20;;;;;;;;;;5076179;28;20467;-74
2022/06/23 07:45:54;;;;;;;6.30;3.73;;;;;;;;;;5066919;28;20529;-74
2022/06/23 07:48:23;;;;;;;6.50;3.60;;;;;;;;;;5074187;28;20471;-72
2022/06/23 07:51:03;;;;;;;5.33;3.70;;;;;;;;;;5074015;28;20445;-74
2022/06/23 07:53:36;;;;;;;4.80;3.67;;;;;;;;;;5075462;28;20452;-74
2022/06/23 07:56:05;;;;;;;4.93;3.70;;;;;;;;;;5074763;28;20448;-73
2022/06/23 07:58:46;;;;;;;7.40;4.40;;;;;;;;;;5056226;28;20484;-73
2022/06/23 08:01:29;;;;;;;6.20;3.90;;;;;;;;;;5065490;28;21063;-72
2022/06/23 08:04:00;;;;;;;4.90;4.10;;;;;;;;;;5053770;28;20531;-73
2022/06/23 08:06:47;;;;;;;5.37;3.93;;;;;;;;;;5059059;28;20526;-73
2022/06/23 08:09:17;;;;;;;4.73;3.83;;;;;;;;;;5067025;28;20449;-73
2022/06/23 08:14:36;;;;;;;8.90;3.57;;;;;;;;;;5074745;28;20416;-73
2022/06/23 08:17:05;;;;;;;7.07;4.67;;;;;;;;;;5071600;28;20878;-74
2022/06/23 08:19:39;;;;;;;7.20;3.53;;;;;;;;;;5069173;28;20966;-75
2022/06/23 08:22:14;;;;;;;4.33;3.10;;;;;;;;;;5066590;28;20464;-76
2022/06/23 08:24:50;;;;;;;8.13;3.90;;;;;;;;;;5057459;28;20456;-74
2022/06/23 08:27:20;;;;;;;4.70;3.50;;;;;;;;;;5060779;28;20461;-73
2022/06/23 08:29:50;;;;;;;7.30;3.90;;;;;;;;;;5069519;28;20489;-73
2022/06/23 08:32:22;;;;;;;7.57;3.80;;;;;;;;;;5074980;28;20559;-75
2022/06/23 08:37:45;;;;;;;7.73;3.67;;;;;;;;;;5035241;28;20548;-74
2022/06/23 08:40:23;;;;;;;7.40;4.07;;;;;;;;;;5064872;28;20481;-73
2022/06/23 08:42:59;;;;;;;5.47;3.00;;;;;;;;;;5052816;28;20464;-73
2022/06/23 08:45:36;;;;;;;4.17;2.83;;;;;;;;;;5068359;28;20448;-74
2022/06/23 08:48:11;;;;;;;5.90;3.77;;;;;;;;;;5065194;28;20453;-74
2022/06/23 08:50:41;;;;;;;4.37;3.03;;;;;;;;;;5069010;28;20448;-73
2022/06/23 08:53:13;;;;;;;6.67;3.67;;;;;;;;;;5072909;28;20465;-73
2022/06/23 08:55:50;;;;;;;6.20;3.17;;;;;;;;;;5066868;28;20456;-75
2022/06/23 08:58:24;;;;;;;5.27;2.90;;;;;;;;;;5065264;28;20742;-74
2022/06/23 09:01:00;;;;;;;3.03;2.47;;;;;;;;;;5065613;28;20488;-74
2022/06/23 09:03:35;;;;;;;6.00;2.73;;;;;;;;;;5072565;28;20723;-74
2022/06/23 09:06:07;;;;;;;5.03;2.73;;;;;;;;;;5058451;28;20492;-73
2022/06/23 09:08:42;;;;;;;4.20;3.23;;;;;;;;;;5054256;28;20457;-74
2022/06/23 09:11:15;;;;;;;4.20;2.87;;;;;;;;;;5053155;28;20469;-73
2022/06/23 09:13:49;;;;;;;6.60;3.20;;;;;;;;;;5061464;28;20497;-74
2022/06/23 09:16:32;;;;;;;6.30;2.87;;;;;;;;;;5058215;28;20525;-75
2022/06/23 09:19:10;;;;;;;3.83;2.90;;;;;;;;;;5056438;28;20520;-75
2022/06/23 09:21:58;;;;;;;10.63;3.43;;;;;;;;;;5055187;28;20772;-76
2022/06/23 09:24:45;;;;;;;5.27;2.60;;;;;;;;;;5054607;28;20481;-75
2022/06/23 09:27:19;;;;;;;4.10;3.10;;;;;;;;;;5061593;28;20557;-75
2022/06/23 09:30:05;;;;;;;4.30;3.77;;;;;;;;;;5050752;28;20461;-74
2022/06/23 09:32:47;;;;;;;3.80;2.53;;;;;;;;;;5059376;28;20524;-75
2022/06/23 09:35:52;;;;;;;4.53;2.63;;;;;;;;;;5053356;28;20469;-75
2022/06/23 09:38:47;;;;;;;5.10;2.90;;;;;;;;;;5059861;28;20451;-76
2022/06/23 09:41:35;;;;;;;5.23;2.63;;;;;;;;;;5072926;28;20907;-75
2022/06/23 09:44:39;;;;;;;3.20;2.53;;;;;;;;;;5071989;28;20465;-75
2022/06/23 09:47:24;;;;;;;4.73;2.53;;;;;;;;;;5056083;28;20544;-75
2022/06/23 09:50:15;;;;;;;6.50;2.50;;;;;;;;;;5044922;28;20457;-75
2022/06/23 09:56:12;;;;;;;4.63;2.40;;;;;;;;;;5067538;28;20564;-76
2022/06/23 09:58:53;;;;;;;3.20;2.40;;;;;;;;;;5052212;28;20495;-75
2022/06/23 10:01:27;;;;;;;2.80;1.93;;;;;;;;;;5058453;28;20524;-74
2022/06/23 10:07:17;;;;;;;3.37;2.27;;;;;;;;;;5072776;28;20739;-75
2022/06/23 10:10:04;;;;;;;6.90;2.97;;;;;;;;;;5064838;28;20437;-76
2022/06/23 10:12:42;;;;;;;3.83;2.00;;;;;;;;;;5050811;28;20506;-77
2022/06/23 10:15:22;;;;;;;6.50;2.47;;;;;;;;;;5070056;28;20658;-76
2022/06/23 10:18:04;;;;;;;5.00;2.40;;;;;;;;;;5067930;28;20543;-77
2022/06/23 10:20:48;;;;;;;4.20;2.27;;;;;;;;;;5062028;28;21165;-75
2022/06/23 10:23:22;;;;;;;2.87;1.80;;;;;;;;;;5050706;28;20457;-75
2022/06/23 10:26:04;;;;;;;3.77;2.60;;;;;;;;;;5059126;28;20468;-74
2022/06/23 10:28:43;;;;;;;5.00;2.97;;;;;;;;;;5066666;28;21070;-75
2022/06/23 10:31:16;;;;;;;3.97;2.27;;;;;;;;;;5070630;28;20486;-74
2022/06/23 10:34:09;;;;;;;4.93;2.40;;;;;;;;;;5070987;28;20462;-74
2022/06/23 10:36:55;;;;;;;4.87;1.90;;;;;;;;;;5033036;28;20461;-75
2022/06/23 10:39:40;;;;;;;6.80;4.53;;;;;;;;;;5052196;28;20545;-75
2022/06/23 10:42:31;;;;;;;5.30;4.03;;;;;;;;;;5051460;28;20546;-75
2022/06/23 10:45:13;;;;;;;4.70;2.80;;;;;;;;;;5051321;28;20465;-76
2022/06/23 10:47:53;;;;;;;4.30;2.70;;;;;;;;;;5052359;28;20452;-75
2022/06/23 10:50:32;;;;;;;3.90;2.30;;;;;;;;;;5057301;28;20496;-76
2022/06/23 10:53:20;;;;;;;4.90;2.97;;;;;;;;;;5058171;28;20471;-76
2022/06/23 10:55:56;;;;;;;4.10;1.97;;;;;;;;;;5070337;28;20467;-75
2022/06/23 10:58:49;;;;;;;3.53;2.00;;;;;;;;;;5066245;28;20459;-76
2022/06/23 11:01:36;;;;;;;2.70;1.60;;;;;;;;;;5050875;28;20969;-76
2022/06/23 11:04:21;;;;;;;2.60;1.60;;;;;;;;;;5064978;28;20445;-74
2022/06/23 11:09:48;;;;;;;4.73;1.73;;;;;;;;;;5053345;28;20521;-75
2022/06/23 11:12:31;;;;;;;3.70;2.10;;;;;;;;;;5062347;28;20461;-75
2022/06/23 11:15:13;;;;;;;2.87;2.13;;;;;;;;;;5067782;28;20456;-74
2022/06/23 11:17:51;;;;;;;4.53;2.93;;;;;;;;;;5062133;28;20508;-74
2022/06/23 11:20:32;;;;;;;11.93;3.37;;;;;;;;;;5060079;28;20518;-74
2022/06/23 11:23:08;;;;;;;3.77;2.20;;;;;;;;;;5060410;28;20491;-74
2022/06/23 11:25:44;;;;;;;5.87;3.10;;;;;;;;;;5064000;28;20453;-74
2022/06/23 11:28:18;;;;;;;2.70;1.90;;;;;;;;;;5064530;28;20497;-75
2022/06/23 11:31:00;;;;;;;3.80;1.80;;;;;;;;;;5073967;28;20551;-75
2022/06/23 11:33:41;;;;;;;7.43;2.73;;;;;;;;;;5066954;28;20468;-75
2022/06/23 11:36:20;;;;;;;5.13;2.40;;;;;;;;;;5072075;28;20467;-75
2022/06/23 11:39:03;;;;;;;8.30;2.90;;;;;;;;;;5071557;28;20466;-75
2022/06/23 11:41:40;;;;;;;4.90;2.20;;;;;;;;;;5064779;28;20488;-74
2022/06/23 11:44:15;;;;;;;6.77;5.70;;;;;;;;;;5076189;28;20436;-76
2022/06/23 11:46:48;;;;;;;5.47;1.90;;;;;;;;;;5065601;28;20457;-73
2022/06/23 11:49:26;;;;;;;2.93;2.20;;;;;;;;;;5067696;28;20873;-74
2022/06/23 11:52:14;;;;;;;;;;;;;;;;;;;;;
2022/06/23 11:54:58;;;;;;;6.27;3.03;;;;;;;;;;5051391;28;20465;-76
2022/06/23 11:57:35;;;;;;;3.13;1.90;;;;;;;;;;5061017;28;21876;-75
2022/06/23 12:00:04;;;;;;;3.90;2.00;;;;;;;;;;5055714;28;20457;-75
2022/06/23 12:02:45;;;;;;;6.63;2.37;;;;;;;;;;5063196;28;20542;-74
2022/06/23 12:05:20;;;;;;;6.07;1.87;;;;;;;;;;5056759;28;20466;-74
2022/06/23 12:08:09;;;;;;;3.07;2.30;;;;;;;;;;5073161;28;20494;-74
2022/06/23 12:11:04;;;;;;;;;;;;;;;;;;;;;
2022/06/23 12:13:42;;;;;;;6.37;2.70;;;;;;;;;;5062433;28;20474;-75
2022/06/23 12:16:14;;;;;;;8.03;2.90;;;;;;;;;;5063482;28;20479;-74
2022/06/23 12:18:51;;;;;;;3.77;2.40;;;;;;;;;;5063237;28;20572;-76
2022/06/23 12:21:26;;;;;;;5.73;2.13;;;;;;;;;;5065894;28;21100;-76
2022/06/23 12:23:56;;;;;;;4.10;2.47;;;;;;;;;;5054859;28;20459;-74
2022/06/23 12:26:26;;;;;;;6.50;3.27;;;;;;;;;;5054013;28;20870;-74
2022/06/23 12:28:57;;;;;;;6.23;1.93;;;;;;;;;;5053985;28;20544;-73
2022/06/23 12:31:32;;;;;;;3.90;2.30;;;;;;;;;;5061034;28;20555;-73
2022/06/23 12:34:06;;;;;;;5.57;3.67;;;;;;;;;;5053160;28;20501;-72
2022/06/23 12:36:39;;;;;;;5.33;2.00;;;;;;;;;;5051939;28;20472;-73
2022/06/23 12:39:10;;;;;;;3.37;2.13;;;;;;;;;;5054126;28;20496;-72
2022/06/23 12:41:43;;;;;;;4.60;2.30;;;;;;;;;;5071694;28;20923;-72
2022/06/23 12:44:20;;;;;;;5.27;2.40;;;;;;;;;;5070980;28;20518;-72
2022/06/23 12:46:53;;;;;;;5.43;2.17;;;;;;;;;;5052680;28;20781;-73
2022/06/23 12:49:40;;;;;;;3.40;1.83;;;;;;;;;;5053351;28;20510;-73
2022/06/23 12:52:28;;;;;;;4.43;2.27;;;;;;;;;;5054849;28;20590;-73
2022/06/23 12:55:17;;;;;;;4.77;3.00;;;;;;;;;;5064925;28;20481;-73
2022/06/23 12:58:17;;;;;;;2.87;1.60;;;;;;;;;;5068346;28;20557;-72
2022/06/23 13:00:55;;;;;;;4.30;2.17;;;;;;;;;;5059224;28;20449;-71
2022/06/23 13:03:25;;;;;;;8.80;4.60;;;;;;;;;;5055421;28;20585;-73
2022/06/23 13:05:55;;;;;;;2.37;1.70;;;;;;;;;;5064666;28;20471;-72
2022/06/23 13:08:27;;;;;;;3.10;1.60;;;;;;;;;;5068335;28;20492;-73
2022/06/23 13:11:01;;;;;;;3.03;2.27;;;;;;;;;;5066953;28;20459;-72
2022/06/23 13:13:36;;;;;;;24.47;17.63;;;;;;;;;;5056004;28;20571;-72
2022/06/23 13:16:06;;;;;;;4.67;2.10;;;;;;;;;;5061728;28;20502;-73
2022/06/23 13:18:37;;;;;;;3.17;1.90;;;;;;;;;;5054921;28;20485;-73
2022/06/23 13:24:07;;;;;;;10.20;2.30;;;;;;;;;;5050448;28;20456;-72
2022/06/23 13:26:43;;;;;;;4.63;2.37;;;;;;;;;;5057256;28;20551;-72
2022/06/23 13:29:26;;;;;;;3.63;2.27;;;;;;;;;;5053861;28;20870;-73
2022/06/23 13:31:58;;;;;;;3.50;1.70;;;;;;;;;;5066937;28;20530;-72
2022/06/23 13:34:31;;;;;;;2.87;1.80;;;;;;;;;;5055769;28;21091;-71
2022/06/23 13:37:05;;;;;;;4.93;2.30;;;;;;;;;;5061066;28;20534;-72
2022/06/23 13:42:40;;;;;;;9.03;2.13;;;;;;;;;;5052878;28;20473;-72
2022/06/23 13:45:33;;;;;;;3.67;1.63;;;;;;;;;;5061542;28;20500;-72
2022/06/23 13:50:51;;;;;;;3.33;1.83;;;;;;;;;;5054341;28;20523;-73
2022/06/23 13:53:22;;;;;;;4.77;3.07;;;;;;;;;;5054183;28;20548;-71
2022/06/23 13:55:54;;;;;;;4.10;2.60;;;;;;;;;;5052691;28;20473;-71
2022/06/23 13:58:40;;;;;;;3.67;2.00;;;;;;;;;;5062774;28;20711;-73
2022/06/23 14:01:12;;;;;;;3.03;2.20;;;;;;;;;;5053894;28;20456;-72
2022/06/23 14:03:44;;;;;;;3.13;2.20;;;;;;;;;;5065225;28;20559;-73
2022/06/23 14:06:14;;;;;;;4.40;2.27;;;;;;;;;;5055927;28;20457;-72
2022/06/23 14:11:55;;;;;;;5.80;2.57;;;;;;;;;;5061190;28;20581;-73
2022/06/23 14:14:31;;;;;;;3.63;2.30;;;;;;;;;;5059066;28;21915;-72
2022/06/23 14:17:02;;;;;;;3.00;2.10;;;;;;;;;;5048905;28;20514;-73
2022/06/23 14:19:33;;;;;;;3.37;2.07;;;;;;;;;;5064054;28;20453;-73
2022/06/23 14:22:03;;;;;;;3.20;2.30;;;;;;;;;;5059722;28;20916;-73
2022/06/23 14:24:43;;;;;;;3.57;2.40;;;;;;;;;;5071036;28;20823;-73
2022/06/23 14:27:15;;;;;;;3.60;2.43;;;;;;;;;;5064726;28;20452;-72
2022/06/23 14:29:47;;;;;;;4.70;2.80;;;;;;;;;;5069884;28;20495;-72
2022/06/23 14:32:18;;;;;;;4.20;2.63;;;;;;;;;;5054591;28;20456;-72
2022/06/23 14:34:51;;;;;;;4.57;3.00;;;;;;;;;;5052013;28;20492;-73
2022/06/23 14:37:22;;;;;;;4.03;1.90;;;;;;;;;;5051287;28;20928;-73
2022/06/23 14:39:51;;;;;;;3.00;1.80;;;;;;;;;;5051432;28;20461;-72
2022/06/23 14:42:31;;;;;;;4.03;2.07;;;;;;;;;;5053883;28;20480;-73
2022/06/23 14:45:13;;;;;;;3.20;1.33;;;;;;;;;;5054669;28;20807;-73
2022/06/23 14:47:53;;;;;;;3.17;2.30;;;;;;;;;;5055593;28;21012;-72
2022/06/23 14:50:33;;;;;;;3.00;1.80;;;;;;;;;;5053748;28;20478;-72
2022/06/23 14:53:07;;;;;;;4.33;2.10;;;;;;;;;;5054358;28;20476;-73
2022/06/23 14:55:40;;;;;;;5.53;1.80;;;;;;;;;;5054860;28;20453;-74
2022/06/23 14:58:11;;;;;;;3.10;1.90;;;;;;;;;;5070210;28;21041;-72
2022/06/23 15:00:48;;;;;;;3.20;1.77;;;;;;;;;;5075047;28;20750;-72
2022/06/23 15:03:25;;;;;;;3.97;1.93;;;;;;;;;;5075182;28;20575;-73
2022/06/23 15:06:01;;;;;;;2.80;1.83;;;;;;;;;;5070290;28;20746;-73
2022/06/23 15:08:36;;;;;;;2.67;1.73;;;;;;;;;;5079139;28;20443;-74
2022/06/23 15:11:07;;;;;;;2.90;1.93;;;;;;;;;;5078612;28;20451;-72
2022/06/23 15:13:39;;;;;;;5.00;2.20;;;;;;;;;;5073206;28;20833;-73
2022/06/23 15:16:11;;;;;;;3.70;1.90;;;;;;;;;;5058319;28;20483;-73
2022/06/23 15:18:48;;;;;;;7.50;2.53;;;;;;;;;;5064682;28;20556;-71
2022/06/23 15:24:12;;;;;;;2.87;1.70;;;;;;;;;;5058748;28;20468;-72
2022/06/23 15:26:44;;;;;;;2.70;1.70;;;;;;;;;;5053130;28;20445;-72
2022/06/23 15:29:17;;;;;;;4.27;1.87;;;;;;;;;;5065997;28;20470;-71
2022/06/23 15:31:50;;;;;;;3.80;2.57;;;;;;;;;;5058283;28;21173;-73
2022/06/23 15:34:20;;;;;;;3.00;1.77;;;;;;;;;;5061612;28;20473;-72
2022/06/23 15:36:55;;;;;;;2.43;1.50;;;;;;;;;;5063408;28;20869;-73
2022/06/23 15:39:36;;;;;;;2.80;1.90;;;;;;;;;;5053625;28;20896;-72
2022/06/23 15:42:07;;;;;;;2.77;1.80;;;;;;;;;;5061391;28;20580;-74
2022/06/23 15:44:45;;;;;;;2.70;1.70;;;;;;;;;;5054899;28;20828;-73
2022/06/23 15:47:20;;;;;;;6.80;4.80;;;;;;;;;;5058134;28;20821;-72
2022/06/23 15:49:53;;;;;;;4.80;3.00;;;;;;;;;;5052786;28;20464;-72
2022/06/23 15:52:25;;;;;;;3.00;2.47;;;;;;;;;;5052055;28;20845;-73
2022/06/23 15:54:59;;;;;;;6.00;2.00;;;;;;;;;;5053271;28;20810;-73
2022/06/23 15:57:30;;;;;;;3.50;1.83;;;;;;;;;;5052327;28;20548;-73
2022/06/23 16:00:03;;;;;;;3.97;2.57;;;;;;;;;;5053237;28;20445;-73
2022/06/23 16:02:39;;;;;;;7.50;1.93;;;;;;;;;;5053428;28;20488;-75
2022/06/23 16:05:14;;;;;;;4.33;1.70;;;;;;;;;;5054004;28;20461;-73